Time;durP1;ratioP1;P1;durP2;ratioP2;P2;SDS_P1;SDS_P2;PMS_P1;PMS_P2;Temp;Humidity;BMP_temperature;BMP_pressure;BME280_temperature;BME280_humidity;BME280_pressure;Samples;Min_cycle;Max_cycle;Signal;HPM_P1;HPM_P2
2023/11/22 05:00:59;;;;;;;2.55;2.42;;;1.80;99.90;;;;;;5635225;23;20249;-72
2023/11/22 05:03:26;;;;;;;3.80;2.92;;;1.80;99.90;;;;;;4914456;29;20221;-74
2023/11/22 05:05:52;;;;;;;4.03;3.83;;;1.70;99.90;;;;;;4918600;29;20231;-74
2023/11/22 05:08:19;;;;;;;3.13;2.88;;;1.70;99.90;;;;;;4915377;29;20210;-74
2023/11/22 05:10:46;;;;;;;4.35;4.05;;;1.70;99.90;;;;;;4911425;29;20247;-74
2023/11/22 05:13:13;;;;;;;3.42;3.13;;;1.70;99.90;;;;;;4892382;29;20302;-74
2023/11/22 05:15:40;;;;;;;4.80;3.35;;;1.70;99.90;;;;;;4930478;23;20253;-72
2023/11/22 05:18:08;;;;;;;7.18;3.53;;;1.60;99.90;;;;;;4914966;29;20246;-72
2023/11/22 05:20:35;;;;;;;3.50;3.22;;;1.60;99.90;;;;;;4895437;29;20267;-71
2023/11/22 05:23:02;;;;;;;3.90;3.60;;;1.60;99.90;;;;;;4890030;29;20290;-70
2023/11/22 05:25:29;;;;;;;4.95;2.40;;;1.50;99.90;;;;;;4884255;29;20236;-72
2023/11/22 05:27:56;;;;;;;3.20;2.95;;;1.50;99.90;;;;;;4890003;29;20242;-71
2023/11/22 05:30:23;;;;;;;3.58;3.28;;;1.50;99.90;;;;;;4893162;29;20758;-71
2023/11/22 05:32:50;;;;;;;4.53;3.30;;;1.50;99.90;;;;;;4895931;29;20214;-70
2023/11/22 05:35:19;;;;;;;5.70;5.20;;;1.40;99.90;;;;;;4896299;29;20215;-71
2023/11/22 05:37:46;;;;;;;4.55;4.10;;;1.40;99.90;;;;;;4892513;29;20306;-72
2023/11/22 05:40:15;;;;;;;4.00;3.70;;;1.40;99.90;;;;;;4897250;29;20356;-72
2023/11/22 05:42:42;;;;;;;3.45;3.22;;;1.40;99.90;;;;;;4896025;29;20288;-72
2023/11/22 05:45:10;;;;;;;3.92;3.63;;;1.40;99.90;;;;;;4893938;29;20392;-71
2023/11/22 05:47:37;;;;;;;4.35;4.00;;;1.30;99.90;;;;;;4894901;29;20327;-72
2023/11/22 05:50:05;;;;;;;5.22;3.63;;;1.30;99.90;;;;;;4893135;29;20314;-71
2023/11/22 05:52:33;;;;;;;4.57;3.60;;;1.30;99.90;;;;;;4892633;29;20295;-72
2023/11/22 05:55:03;;;;;;;3.95;3.55;;;1.30;99.90;;;;;;4895528;29;20247;-72
2023/11/22 05:57:30;;;;;;;3.95;2.83;;;1.30;99.90;;;;;;4890599;29;20219;-71
2023/11/22 05:59:56;;;;;;;3.08;2.83;;;1.30;99.90;;;;;;4893008;29;20822;-71
2023/11/22 06:02:23;;;;;;;3.80;3.50;;;1.30;99.90;;;;;;4892722;29;20208;-72
2023/11/22 06:04:50;;;;;;;2.33;2.13;;;1.20;99.90;;;;;;4894450;29;20487;-72
2023/11/22 06:07:17;;;;;;;3.58;2.85;;;1.20;99.90;;;;;;4897328;29;20362;-71
2023/11/22 06:09:45;;;;;;;3.55;3.40;;;1.20;99.90;;;;;;4895751;29;20743;-71
2023/11/22 06:12:12;;;;;;;3.78;2.75;;;1.20;99.90;;;;;;4896266;29;20316;-71
2023/11/22 06:14:39;;;;;;;3.05;2.75;;;1.20;99.90;;;;;;4893414;29;20752;-73
2023/11/22 06:17:06;;;;;;;1.92;1.92;;;1.20;99.90;;;;;;4897073;29;20322;-72
2023/11/22 06:19:33;;;;;;;3.38;3.13;;;1.20;99.90;;;;;;4894927;29;20279;-71
2023/11/22 06:22:00;;;;;;;3.47;3.30;;;1.10;99.90;;;;;;4894184;29;20655;-72
2023/11/22 06:24:27;;;;;;;4.40;3.25;;;1.10;99.90;;;;;;4896344;29;20598;-72
2023/11/22 06:26:55;;;;;;;3.20;2.65;;;1.10;99.90;;;;;;4895965;29;20696;-71
2023/11/22 06:29:22;;;;;;;2.95;2.83;;;1.10;99.90;;;;;;4891165;29;20295;-72
2023/11/22 06:31:49;;;;;;;3.10;2.90;;;1.10;99.90;;;;;;4894395;29;20243;-71
2023/11/22 06:34:16;;;;;;;3.50;3.00;;;1.10;99.90;;;;;;4891684;29;20247;-73
2023/11/22 06:36:43;;;;;;;2.60;2.40;;;1.10;99.90;;;;;;4894752;29;20652;-70
2023/11/22 06:39:13;;;;;;;3.42;3.13;;;1.10;99.90;;;;;;4891999;29;20724;-72
2023/11/22 06:41:41;;;;;;;2.88;2.67;;;1.10;99.90;;;;;;4896230;29;20744;-71
2023/11/22 06:44:09;;;;;;;5.78;4.18;;;1.10;99.90;;;;;;4891323;29;20292;-71
2023/11/22 06:46:36;;;;;;;3.70;3.50;;;1.20;99.90;;;;;;4894025;29;20219;-72
2023/11/22 06:49:04;;;;;;;3.90;3.55;;;1.20;99.90;;;;;;4892957;29;20279;-71
2023/11/22 06:51:31;;;;;;;3.40;3.10;;;1.20;99.90;;;;;;4894478;29;20219;-72
2023/11/22 06:53:58;;;;;;;4.38;4.03;;;1.20;99.90;;;;;;4890224;29;20235;-72
2023/11/22 06:56:25;;;;;;;5.60;5.20;;;1.20;99.90;;;;;;4895713;29;20238;-70
2023/11/22 06:58:52;;;;;;;5.30;4.90;;;1.20;99.90;;;;;;4892886;29;20298;-72
2023/11/22 07:01:25;;;;;;;7.25;4.00;;;1.20;99.90;;;;;;4889457;29;20262;-72
2023/11/22 07:03:53;;;;;;;7.88;5.65;;;1.20;99.90;;;;;;4893319;29;20223;-72
2023/11/22 07:06:22;;;;;;;5.63;5.30;;;1.20;99.90;;;;;;4893855;29;20580;-72
2023/11/22 07:08:49;;;;;;;4.78;4.30;;;1.20;99.90;;;;;;4894855;29;20345;-73
2023/11/22 07:11:24;;;;;;;5.22;4.70;;;1.30;99.90;;;;;;4893902;29;20233;-71
2023/11/22 07:13:51;;;;;;;3.72;3.53;;;1.30;99.90;;;;;;4893641;29;20214;-73
2023/11/22 07:16:20;;;;;;;5.38;4.10;;;1.30;99.90;;;;;;4894290;29;20573;-72
2023/11/22 07:18:47;;;;;;;4.28;3.92;;;1.30;99.90;;;;;;4892405;29;20218;-72
2023/11/22 07:21:14;;;;;;;4.18;3.83;;;1.40;99.90;;;;;;4892704;29;20227;-72
2023/11/22 07:23:41;;;;;;;5.57;5.03;;;1.40;99.90;;;;;;4894577;29;20247;-72
2023/11/22 07:26:08;;;;;;;4.93;4.53;;;1.40;99.90;;;;;;4891404;29;20243;-73
2023/11/22 07:28:36;;;;;;;6.80;4.38;;;1.40;99.90;;;;;;4891569;29;20309;-78
2023/11/22 07:31:05;;;;;;;6.47;5.60;;;1.40;99.90;;;;;;4890579;29;20700;-73
2023/11/22 07:33:34;;;;;;;3.50;3.08;;;1.50;99.90;;;;;;4891888;29;20257;-73
2023/11/22 07:36:02;;;;;;;3.45;3.17;;;1.50;99.90;;;;;;4891039;29;20215;-72
2023/11/22 07:38:31;;;;;;;5.35;4.93;;;1.50;99.90;;;;;;4895170;29;20243;-72
2023/11/22 07:40:58;;;;;;;6.40;5.78;;;1.50;99.90;;;;;;4889946;29;20231;-73
2023/11/22 07:43:25;;;;;;;4.30;4.03;;;1.50;99.90;;;;;;4892016;29;20223;-73
2023/11/22 07:45:52;;;;;;;4.50;4.10;;;1.50;99.90;;;;;;4889971;29;20239;-72
2023/11/22 07:48:19;;;;;;;9.20;6.72;;;1.60;99.90;;;;;;4887731;29;20215;-73
2023/11/22 07:50:49;;;;;;;12.65;8.30;;;1.60;99.90;;;;;;4889435;29;20405;-72
2023/11/22 07:53:17;;;;;;;7.60;5.03;;;1.60;99.90;;;;;;4890292;29;20207;-72
2023/11/22 07:55:44;;;;;;;5.10;4.10;;;1.70;99.90;;;;;;4889401;29;20294;-72
2023/11/22 07:58:11;;;;;;;9.52;5.80;;;1.70;99.90;;;;;;4890721;29;20294;-71
2023/11/22 08:00:38;;;;;;;9.77;5.35;;;1.70;99.90;;;;;;4893161;29;20243;-71
2023/11/22 08:03:06;;;;;;;5.53;4.63;;;1.70;99.90;;;;;;4895332;29;20652;-73
2023/11/22 08:05:36;;;;;;;4.50;4.25;;;1.80;99.90;;;;;;4891328;29;20696;-72
2023/11/22 08:08:07;;;;;;;6.00;5.43;;;1.80;99.90;;;;;;4895504;29;20238;-71
2023/11/22 08:10:34;;;;;;;6.53;5.70;;;1.80;99.90;;;;;;4894657;29;20342;-72
2023/11/22 08:13:02;;;;;;;5.82;5.32;;;1.90;99.90;;;;;;4888670;29;20290;-72
2023/11/22 08:15:31;;;;;;;9.75;6.32;;;1.90;99.90;;;;;;4892123;29;20215;-73
2023/11/22 08:17:58;;;;;;;6.15;5.53;;;2.00;99.90;;;;;;4896521;29;20222;-72
2023/11/22 08:20:25;;;;;;;7.22;6.53;;;2.00;99.90;;;;;;4891110;29;20728;-73
2023/11/22 08:22:52;;;;;;;6.53;5.35;;;2.00;99.90;;;;;;4891100;29;20302;-72
2023/11/22 08:25:20;;;;;;;5.55;4.82;;;2.10;99.90;;;;;;4897179;29;20277;-71
2023/11/22 08:27:47;;;;;;;6.32;5.88;;;2.20;99.90;;;;;;4894679;29;20322;-72
2023/11/22 08:30:15;;;;;;;6.55;5.22;;;2.20;99.90;;;;;;4898079;29;20310;-71
2023/11/22 08:32:43;;;;;;;6.22;5.63;;;2.20;99.90;;;;;;4894603;29;20637;-71
2023/11/22 08:35:11;;;;;;;6.68;6.28;;;2.30;99.90;;;;;;4894316;29;20720;-72
2023/11/22 08:37:41;;;;;;;6.85;5.35;;;2.30;99.90;;;;;;4894094;29;20306;-71
2023/11/22 08:40:11;;;;;;;18.15;10.35;;;2.40;99.90;;;;;;4898678;29;20325;-72
2023/11/22 08:42:40;;;;;;;21.48;12.70;;;2.40;99.90;;;;;;4895606;29;20239;-72
2023/11/22 08:45:09;;;;;;;23.55;11.85;;;2.40;99.90;;;;;;4896409;29;20222;-72
2023/11/22 08:47:36;;;;;;;9.80;8.13;;;2.40;99.90;;;;;;4887843;29;20687;-72
2023/11/22 08:50:05;;;;;;;14.15;7.32;;;2.50;99.90;;;;;;4897701;29;20235;-73
2023/11/22 08:52:32;;;;;;;9.82;7.90;;;2.50;99.90;;;;;;4898945;29;20230;-72
2023/11/22 08:55:00;;;;;;;17.52;11.93;;;2.60;99.90;;;;;;4896174;29;20326;-73
2023/11/22 08:57:27;;;;;;;23.75;14.77;;;2.60;99.90;;;;;;4897524;29;20219;-72
2023/11/22 08:59:56;;;;;;;16.55;9.45;;;2.60;99.90;;;;;;4897043;29;20234;-72
2023/11/22 09:02:23;;;;;;;6.50;5.35;;;2.70;99.90;;;;;;4895588;29;20238;-72
2023/11/22 09:04:50;;;;;;;13.20;7.85;;;2.70;99.90;;;;;;4891429;29;20540;-71
2023/11/22 09:07:17;;;;;;;7.13;6.43;;;2.80;99.90;;;;;;4893695;29;20610;-72
2023/11/22 09:09:44;;;;;;;9.77;7.55;;;2.90;99.90;;;;;;4891843;29;20318;-72
2023/11/22 09:12:12;;;;;;;9.07;7.05;;;2.80;99.90;;;;;;4893311;29;20299;-71
2023/11/22 09:14:41;;;;;;;10.18;6.70;;;2.90;99.90;;;;;;4894978;29;20247;-72
2023/11/22 09:17:10;;;;;;;10.52;6.15;;;2.90;99.90;;;;;;4898531;29;20316;-72
2023/11/22 09:19:37;;;;;;;11.93;6.68;;;3.00;99.90;;;;;;4896662;29;20235;-71
2023/11/22 09:22:07;;;;;;;8.50;7.57;;;3.00;99.90;;;;;;4887585;29;20204;-72
2023/11/22 09:24:36;;;;;;;10.05;6.65;;;3.10;99.90;;;;;;4896957;29;20282;-73
2023/11/22 09:27:05;;;;;;;10.00;7.07;;;3.10;99.90;;;;;;4897081;29;20707;-74
2023/11/22 09:29:32;;;;;;;13.80;9.80;;;3.20;99.90;;;;;;4895744;29;20476;-70
2023/11/22 09:32:00;;;;;;;16.40;10.25;;;3.20;99.90;;;;;;4897423;29;20475;-71
2023/11/22 09:34:29;;;;;;;14.40;8.80;;;3.20;99.90;;;;;;4897428;29;20257;-71
2023/11/22 09:36:56;;;;;;;10.38;6.97;;;3.20;99.90;;;;;;4895413;29;20215;-71
2023/11/22 09:39:24;;;;;;;18.80;11.80;;;3.30;99.90;;;;;;4893115;29;20246;-76
2023/11/22 09:41:52;;;;;;;12.30;8.57;;;3.30;99.90;;;;;;4892464;29;20276;-73
2023/11/22 09:44:20;;;;;;;7.60;6.55;;;3.40;99.90;;;;;;4897416;29;20221;-72
2023/11/22 09:46:50;;;;;;;9.95;7.25;;;3.40;99.90;;;;;;4891713;29;20235;-74
2023/11/22 09:49:25;;;;;;;11.07;7.40;;;3.40;99.90;;;;;;4895455;29;20271;-73
2023/11/22 09:51:57;;;;;;;7.60;6.70;;;3.50;99.90;;;;;;4894149;29;20298;-73
2023/11/22 09:54:29;;;;;;;6.18;5.20;;;3.60;99.90;;;;;;4891589;29;20226;-74
2023/11/22 09:57:01;;;;;;;7.88;6.32;;;3.60;99.90;;;;;;4893987;29;20222;-73
2023/11/22 09:59:29;;;;;;;6.90;6.05;;;3.60;99.90;;;;;;4896351;29;20231;-73
2023/11/22 10:01:59;;;;;;;5.88;4.63;;;3.70;99.90;;;;;;4895451;29;20734;-72
2023/11/22 10:04:28;;;;;;;16.80;8.40;;;3.70;99.90;;;;;;4896175;29;20310;-71
2023/11/22 10:06:58;;;;;;;15.68;9.85;;;3.80;99.90;;;;;;4895619;29;20668;-72
2023/11/22 10:09:27;;;;;;;20.48;10.70;;;3.80;99.90;;;;;;4893037;29;21420;-72
2023/11/22 10:11:57;;;;;;;15.45;9.98;;;3.80;99.90;;;;;;4896852;29;20218;-72
2023/11/22 10:14:26;;;;;;;10.82;7.53;;;3.80;99.90;;;;;;4895797;29;20688;-73
2023/11/22 10:17:00;;;;;;;6.93;6.25;;;3.90;99.90;;;;;;4891157;29;20596;-71
2023/11/22 10:19:28;;;;;;;10.20;6.22;;;3.90;99.90;;;;;;4897477;29;20238;-71
2023/11/22 10:22:06;;;;;;;10.85;7.00;;;3.90;99.90;;;;;;4898219;29;20265;-72
2023/11/22 10:24:34;;;;;;;9.95;6.07;;;4.00;99.90;;;;;;4896436;29;20237;-71
2023/11/22 10:27:01;;;;;;;9.25;7.05;;;4.00;99.90;;;;;;4894686;29;20235;-72
2023/11/22 10:29:28;;;;;;;24.00;13.18;;;4.00;99.90;;;;;;4895296;29;20247;-72
2023/11/22 10:31:56;;;;;;;15.93;10.15;;;4.00;99.90;;;;;;4897210;29;20230;-72
2023/11/22 10:34:24;;;;;;;10.75;6.75;;;4.00;99.90;;;;;;4891063;29;20207;-72
2023/11/22 10:36:52;;;;;;;10.88;7.00;;;4.00;99.90;;;;;;4893557;29;20294;-72
2023/11/22 10:39:25;;;;;;;10.95;6.45;;;3.90;99.90;;;;;;4892013;29;20626;-71
2023/11/22 10:41:52;;;;;;;4.20;3.72;;;3.90;99.90;;;;;;4891143;29;20231;-73
2023/11/22 10:44:22;;;;;;;3.25;2.95;;;3.90;99.90;;;;;;4890748;29;20263;-72
2023/11/22 10:46:50;;;;;;;3.17;3.00;;;3.90;99.90;;;;;;4887379;29;20688;-72
2023/11/22 10:49:18;;;;;;;3.38;3.15;;;4.00;99.90;;;;;;4893907;29;20275;-71
2023/11/22 10:51:49;;;;;;;5.63;3.75;;;4.00;99.90;;;;;;4894695;29;20309;-71
2023/11/22 10:54:16;;;;;;;5.18;4.55;;;4.10;99.90;;;;;;4893148;29;20701;-71
2023/11/22 10:56:52;;;;;;;3.80;3.60;;;4.20;99.90;;;;;;4890549;29;20223;-73
2023/11/22 10:59:23;;;;;;;3.55;3.25;;;4.30;99.90;;;;;;4892794;29;20219;-72
2023/11/22 11:01:52;;;;;;;2.33;2.25;;;4.30;99.90;;;;;;4893798;29;20621;-72
2023/11/22 11:04:28;;;;;;;3.22;2.92;;;4.20;99.90;;;;;;4893043;29;20481;-70
2023/11/22 11:06:56;;;;;;;2.30;2.20;;;4.20;99.90;;;;;;4893408;29;20295;-70
2023/11/22 11:09:26;;;;;;;2.97;2.75;;;4.20;99.90;;;;;;4887667;29;20212;-75
2023/11/22 11:11:57;;;;;;;2.65;2.53;;;4.20;99.90;;;;;;4895553;29;20219;-75
2023/11/22 11:14:24;;;;;;;2.78;2.65;;;4.30;99.90;;;;;;4899785;29;20211;-76
2023/11/22 11:16:54;;;;;;;2.53;2.33;;;4.30;99.90;;;;;;4894807;29;20256;-75
2023/11/22 11:19:23;;;;;;;1.95;1.85;;;4.40;99.90;;;;;;4890586;29;20212;-74
2023/11/22 11:21:50;;;;;;;3.10;2.75;;;4.40;99.90;;;;;;4892978;29;20268;-74
2023/11/22 11:24:18;;;;;;;3.25;3.05;;;4.40;99.90;;;;;;4887319;29;20263;-75
2023/11/22 11:26:52;;;;;;;2.15;2.15;;;4.50;99.90;;;;;;4886839;29;20334;-73
2023/11/22 11:29:42;;;;;;;3.25;2.95;;;4.50;99.90;;;;;;4890864;29;20228;-72
2023/11/22 11:32:13;;;;;;;3.00;2.67;;;4.50;99.90;;;;;;4888047;29;20211;-74
2023/11/22 11:34:49;;;;;;;3.95;3.58;;;4.50;99.90;;;;;;4896091;29;20241;-74
2023/11/22 11:37:16;;;;;;;3.75;3.58;;;4.50;99.90;;;;;;4893104;29;20215;-73
2023/11/22 11:39:43;;;;;;;7.03;2.88;;;4.50;99.90;;;;;;4890173;29;20326;-74
2023/11/22 11:42:13;;;;;;;2.20;2.10;;;4.50;99.90;;;;;;4895506;29;20553;-73
2023/11/22 11:44:53;;;;;;;2.28;2.17;;;4.50;99.90;;;;;;4884891;29;20219;-75
2023/11/22 11:47:20;;;;;;;2.35;2.20;;;4.40;99.90;;;;;;4895144;29;20278;-75
2023/11/22 11:49:49;;;;;;;2.13;2.03;;;4.50;99.90;;;;;;4896164;29;20235;-80
2023/11/22 11:52:16;;;;;;;2.63;2.50;;;4.50;99.90;;;;;;4892997;29;20207;-72
2023/11/22 11:54:43;;;;;;;2.30;2.15;;;4.60;99.90;;;;;;4893069;29;20246;-71
2023/11/22 11:57:10;;;;;;;1.90;1.48;;;4.50;99.90;;;;;;4891150;29;20726;-71
2023/11/22 11:59:37;;;;;;;2.83;2.63;;;4.50;99.90;;;;;;4893181;29;20751;-71
2023/11/22 12:02:06;;;;;;;1.33;1.33;;;4.40;99.90;;;;;;4890179;29;20266;-71
2023/11/22 12:04:34;;;;;;;2.47;1.80;;;4.40;99.90;;;;;;4891417;29;20211;-71
2023/11/22 12:07:01;;;;;;;1.80;1.55;;;4.30;99.90;;;;;;4891864;29;20255;-72
2023/11/22 12:09:29;;;;;;;2.70;1.88;;;4.30;99.90;;;;;;4891007;29;20613;-71
2023/11/22 12:11:56;;;;;;;1.95;1.85;;;4.30;99.90;;;;;;4890507;29;20216;-72
2023/11/22 12:14:25;;;;;;;3.20;2.95;;;4.30;99.90;;;;;;4887524;29;20208;-71
2023/11/22 12:16:54;;;;;;;1.63;1.63;;;4.30;99.90;;;;;;4893448;29;20226;-72
2023/11/22 12:19:28;;;;;;;2.70;1.65;;;4.30;99.90;;;;;;4894857;29;20720;-71
2023/11/22 12:21:55;;;;;;;1.65;1.55;;;4.30;99.90;;;;;;4888457;29;20298;-72
2023/11/22 12:24:22;;;;;;;3.53;2.47;;;4.30;99.90;;;;;;4887595;29;20258;-71
2023/11/22 12:26:49;;;;;;;2.47;2.17;;;4.30;99.90;;;;;;4889775;29;20295;-72
2023/11/22 12:29:18;;;;;;;2.17;2.08;;;4.30;99.90;;;;;;4893847;29;20267;-73
2023/11/22 12:31:46;;;;;;;1.40;1.40;;;4.30;99.90;;;;;;4889616;29;20234;-71
2023/11/22 12:34:15;;;;;;;3.25;2.40;;;4.40;99.90;;;;;;4895198;29;20211;-73
2023/11/22 12:36:44;;;;;;;2.75;2.47;;;4.40;99.90;;;;;;4891965;29;20207;-72
2023/11/22 12:39:16;;;;;;;2.60;2.50;;;4.40;99.90;;;;;;4889545;29;20208;-71
2023/11/22 12:41:45;;;;;;;3.55;2.65;;;4.40;99.90;;;;;;4893539;29;20219;-71
2023/11/22 12:44:11;;;;;;;2.95;2.75;;;4.40;99.90;;;;;;4892147;29;20314;-72
2023/11/22 12:46:55;;;;;;;2.83;2.58;;;4.30;99.90;;;;;;4884491;29;20263;-72
2023/11/22 12:49:22;;;;;;;2.15;2.05;;;4.30;99.90;;;;;;4890271;29;20310;-72
2023/11/22 12:51:52;;;;;;;4.22;3.55;;;4.30;99.90;;;;;;4892685;29;20617;-72
2023/11/22 12:54:21;;;;;;;1.85;1.80;;;4.20;99.90;;;;;;4892460;29;20203;-71
2023/11/22 12:56:50;;;;;;;2.20;2.10;;;4.20;99.90;;;;;;4888848;29;20307;-70
2023/11/22 12:59:17;;;;;;;2.40;2.25;;;4.20;99.90;;;;;;4888301;29;20208;-72
2023/11/22 13:01:45;;;;;;;4.15;3.10;;;4.20;99.90;;;;;;4892115;29;20668;-72
2023/11/22 13:04:14;;;;;;;2.17;2.15;;;4.20;99.90;;;;;;4891597;29;20614;-71
2023/11/22 13:06:41;;;;;;;2.53;2.40;;;4.20;99.90;;;;;;4894083;29;20631;-72
2023/11/22 13:09:14;;;;;;;2.28;2.17;;;4.30;99.90;;;;;;4897213;29;20211;-72
2023/11/22 13:11:42;;;;;;;2.15;2.10;;;4.20;99.90;;;;;;4894844;29;20226;-72
2023/11/22 13:14:09;;;;;;;2.22;2.10;;;4.30;99.90;;;;;;4889330;29;20212;-71
2023/11/22 13:16:38;;;;;;;1.42;1.30;;;4.30;99.90;;;;;;4891089;29;20226;-72
2023/11/22 13:19:05;;;;;;;1.80;1.70;;;4.30;99.90;;;;;;4892179;29;20754;-72
2023/11/22 13:21:32;;;;;;;2.92;2.45;;;4.30;99.90;;;;;;4892000;29;20295;-71
2023/11/22 13:23:59;;;;;;;2.03;1.92;;;4.30;99.90;;;;;;4898909;29;20227;-74
2023/11/22 13:26:28;;;;;;;4.75;2.33;;;4.30;99.90;;;;;;4896768;29;20208;-72
2023/11/22 13:28:55;;;;;;;4.20;1.92;;;4.30;99.90;;;;;;4896488;29;20317;-74
2023/11/22 13:31:24;;;;;;;4.22;2.00;;;4.20;99.90;;;;;;4894870;29;20266;-72
2023/11/22 13:33:51;;;;;;;2.65;2.55;;;4.20;99.90;;;;;;4890205;29;20222;-72
2023/11/22 13:36:18;;;;;;;4.95;1.95;;;4.30;99.90;;;;;;4890431;29;20204;-72
2023/11/22 13:38:44;;;;;;;1.92;1.83;;;4.30;99.90;;;;;;4890793;29;20322;-72
2023/11/22 13:41:12;;;;;;;5.15;2.10;;;4.30;99.90;;;;;;4891885;29;20302;-72
2023/11/22 13:43:40;;;;;;;2.00;1.90;;;4.30;99.90;;;;;;4894803;29;20218;-72
2023/11/22 13:46:09;;;;;;;2.70;1.70;;;4.30;99.90;;;;;;4898386;29;20214;-72
2023/11/22 13:48:36;;;;;;;1.60;1.45;;;4.30;99.90;;;;;;4890049;29;20250;-72
2023/11/22 13:51:04;;;;;;;2.20;1.60;;;4.30;99.90;;;;;;4888606;29;20326;-70
2023/11/22 13:53:34;;;;;;;2.20;1.42;;;4.30;99.90;;;;;;4889058;29;20215;-72
2023/11/22 13:56:05;;;;;;;1.55;1.40;;;4.30;99.90;;;;;;4888688;29;20687;-73
2023/11/22 13:58:35;;;;;;;2.15;2.05;;;4.20;99.90;;;;;;4889313;29;20315;-72
2023/11/22 14:01:06;;;;;;;1.65;1.58;;;4.20;99.90;;;;;;4889899;29;20230;-73
2023/11/22 14:03:33;;;;;;;1.88;1.33;;;4.20;99.90;;;;;;4889377;29;20212;-71
2023/11/22 14:06:00;;;;;;;1.63;1.63;;;4.20;99.90;;;;;;4887768;29;20287;-73
2023/11/22 14:08:27;;;;;;;1.30;1.30;;;4.20;99.90;;;;;;4889810;29;20780;-72
2023/11/22 14:10:54;;;;;;;2.40;1.38;;;4.20;99.90;;;;;;4890879;29;20334;-73
2023/11/22 14:13:21;;;;;;;3.40;1.15;;;4.20;99.90;;;;;;4889961;29;20274;-72
2023/11/22 14:15:48;;;;;;;1.30;1.30;;;4.20;99.90;;;;;;4884987;29;20254;-73
2023/11/22 14:18:17;;;;;;;1.77;1.65;;;4.10;99.90;;;;;;4889440;29;20306;-72
2023/11/22 14:20:44;;;;;;;1.25;1.20;;;4.10;99.90;;;;;;4890071;29;20231;-73
2023/11/22 14:23:10;;;;;;;1.77;1.73;;;4.10;99.90;;;;;;4888807;29;20203;-71
2023/11/22 14:25:37;;;;;;;2.08;1.92;;;4.10;99.90;;;;;;4892289;29;20299;-71
2023/11/22 14:28:04;;;;;;;1.75;1.65;;;4.10;99.90;;;;;;4890724;29;20318;-77
2023/11/22 14:30:35;;;;;;;1.77;1.58;;;4.10;99.90;;;;;;4892396;29;20318;-77
2023/11/22 14:33:06;;;;;;;1.60;1.27;;;4.10;99.90;;;;;;4897754;29;20223;-74
2023/11/22 14:35:35;;;;;;;1.27;1.27;;;4.00;99.90;;;;;;4897000;29;20616;-75
2023/11/22 14:38:03;;;;;;;1.30;1.20;;;4.00;99.90;;;;;;4894233;29;20203;-73
2023/11/22 14:40:31;;;;;;;1.77;1.45;;;4.00;99.90;;;;;;4890682;29;20235;-74
2023/11/22 14:42:58;;;;;;;2.47;1.98;;;4.00;99.90;;;;;;4896404;29;20211;-73
2023/11/22 14:45:26;;;;;;;1.80;1.70;;;3.90;99.90;;;;;;4890247;29;20637;-74
2023/11/22 14:47:53;;;;;;;1.25;1.15;;;3.90;99.90;;;;;;4892249;29;20303;-74
2023/11/22 14:50:21;;;;;;;1.42;1.33;;;3.90;99.90;;;;;;4886460;29;20259;-73
2023/11/22 14:52:49;;;;;;;2.35;1.73;;;3.90;99.90;;;;;;4892972;29;20656;-72
2023/11/22 14:55:18;;;;;;;1.55;1.55;;;3.90;99.90;;;;;;4888455;29;20200;-73
2023/11/22 14:57:45;;;;;;;1.73;1.65;;;3.90;99.90;;;;;;4891132;29;20211;-73
2023/11/22 15:00:14;;;;;;;2.33;2.08;;;3.80;99.90;;;;;;4895539;29;20270;-73
2023/11/22 15:02:42;;;;;;;1.80;1.70;;;3.80;99.90;;;;;;4888452;29;20299;-73
2023/11/22 15:05:10;;;;;;;2.13;1.35;;;3.80;99.90;;;;;;4895009;29;20258;-73
2023/11/22 15:07:38;;;;;;;2.70;1.40;;;3.70;99.90;;;;;;4892928;29;20317;-73
2023/11/22 15:10:06;;;;;;;1.77;1.70;;;3.70;99.90;;;;;;4894484;29;20249;-74
2023/11/22 15:12:34;;;;;;;1.20;1.20;;;3.70;99.90;;;;;;4891949;29;20246;-73
2023/11/22 15:15:01;;;;;;;2.00;1.90;;;3.70;99.90;;;;;;4889593;29;20246;-75
2023/11/22 15:17:29;;;;;;;1.38;1.38;;;3.70;99.90;;;;;;4893283;29;20310;-73
2023/11/22 15:19:56;;;;;;;3.03;1.80;;;3.60;99.90;;;;;;4888075;29;21014;-72
2023/11/22 15:22:23;;;;;;;2.20;2.10;;;3.60;99.90;;;;;;4896439;29;20652;-72
2023/11/22 15:24:49;;;;;;;2.25;1.58;;;3.60;99.90;;;;;;4893112;29;20238;-72
2023/11/22 15:27:18;;;;;;;1.73;1.73;;;3.60;99.90;;;;;;4890756;29;20258;-72
2023/11/22 15:29:45;;;;;;;2.47;2.28;;;3.50;99.90;;;;;;4892866;29;20232;-72
2023/11/22 15:32:13;;;;;;;1.85;1.73;;;3.60;99.90;;;;;;4890017;29;20688;-72
2023/11/22 15:34:40;;;;;;;2.45;2.35;;;3.50;99.90;;;;;;4893675;29;20215;-78
2023/11/22 15:37:10;;;;;;;2.08;1.98;;;3.60;99.90;;;;;;4893991;29;20772;-71
2023/11/22 15:39:37;;;;;;;2.00;1.90;;;3.60;99.90;;;;;;4895360;29;20241;-70
2023/11/22 15:42:05;;;;;;;1.77;1.77;;;3.60;99.90;;;;;;4892576;29;20231;-70
2023/11/22 15:44:34;;;;;;;1.23;1.23;;;3.50;99.90;;;;;;4891811;29;20212;-70
2023/11/22 15:47:04;;;;;;;2.10;1.92;;;3.50;99.90;;;;;;4892822;29;20952;-70
2023/11/22 15:49:31;;;;;;;1.50;1.40;;;3.50;99.90;;;;;;4894190;29;20267;-70
2023/11/22 15:51:58;;;;;;;3.10;2.90;;;3.50;99.90;;;;;;4894116;29;20250;-70
2023/11/22 15:54:25;;;;;;;1.90;1.73;;;3.40;99.90;;;;;;4887778;29;20303;-70
2023/11/22 15:56:52;;;;;;;2.00;1.90;;;3.40;99.90;;;;;;4891132;29;20290;-70
2023/11/22 15:59:18;;;;;;;2.45;2.35;;;3.40;99.90;;;;;;4890190;29;20212;-72
2023/11/22 16:01:47;;;;;;;1.23;1.23;;;3.40;99.90;;;;;;4892531;29;20217;-71
2023/11/22 16:04:13;;;;;;;3.28;2.00;;;3.30;99.90;;;;;;4895277;29;20235;-71
2023/11/22 16:06:40;;;;;;;2.67;2.47;;;3.30;99.90;;;;;;4894928;29;20374;-71
2023/11/22 16:09:12;;;;;;;2.28;2.05;;;3.30;99.90;;;;;;4887499;29;20310;-71
2023/11/22 16:11:39;;;;;;;1.95;1.60;;;3.30;99.90;;;;;;4889094;29;20219;-71
2023/11/22 16:14:06;;;;;;;1.50;1.40;;;3.30;99.90;;;;;;4888009;29;20374;-69
2023/11/22 16:16:33;;;;;;;2.30;2.20;;;3.20;99.90;;;;;;4890846;29;20267;-69
2023/11/22 16:19:01;;;;;;;2.15;1.80;;;3.20;99.90;;;;;;4890569;29;20285;-69
2023/11/22 16:21:28;;;;;;;1.90;1.80;;;3.20;99.90;;;;;;4889580;29;20279;-69
2023/11/22 16:23:55;;;;;;;2.72;2.47;;;3.20;99.90;;;;;;4887807;29;20278;-71
2023/11/22 16:26:23;;;;;;;2.33;2.15;;;3.20;99.90;;;;;;4892488;29;20602;-70
2023/11/22 16:28:50;;;;;;;3.13;1.85;;;3.20;99.90;;;;;;4889365;29;20334;-70
2023/11/22 16:31:19;;;;;;;6.90;3.50;;;3.20;99.90;;;;;;4894815;29;20322;-70
2023/11/22 16:33:46;;;;;;;3.65;3.35;;;3.20;99.90;;;;;;4891670;29;20207;-70
2023/11/22 16:36:15;;;;;;;5.20;2.97;;;3.30;99.90;;;;;;4886707;29;20238;-70
2023/11/22 16:38:44;;;;;;;3.15;2.85;;;3.30;99.90;;;;;;4889078;29;20672;-71
2023/11/22 16:41:10;;;;;;;2.05;1.95;;;3.20;99.90;;;;;;4895407;29;20651;-70
2023/11/22 16:43:38;;;;;;;2.45;2.00;;;3.20;99.90;;;;;;4899877;29;20242;-71
2023/11/22 16:46:06;;;;;;;2.38;2.17;;;3.20;99.90;;;;;;4896462;29;20234;-70
2023/11/22 16:48:32;;;;;;;2.67;2.47;;;3.20;99.90;;;;;;4896065;29;20759;-71
2023/11/22 16:50:59;;;;;;;2.38;2.28;;;3.20;99.90;;;;;;4894736;29;20235;-71
2023/11/22 16:53:28;;;;;;;2.35;2.28;;;3.20;99.90;;;;;;4894087;29;20203;-69
2023/11/22 16:55:55;;;;;;;2.15;1.92;;;3.10;99.90;;;;;;4897550;29;20216;-74
2023/11/22 16:58:22;;;;;;;5.15;3.20;;;3.10;99.90;;;;;;4890170;29;20243;-73
2023/11/22 17:00:50;;;;;;;2.80;2.60;;;3.10;99.90;;;;;;4890119;29;20226;-71
2023/11/22 17:03:17;;;;;;;2.30;2.20;;;3.10;99.90;;;;;;4899944;29;20207;-71
2023/11/22 17:05:46;;;;;;;10.85;3.50;;;3.10;99.90;;;;;;4891753;29;20298;-71
2023/11/22 17:08:13;;;;;;;3.63;3.33;;;3.00;99.90;;;;;;4895978;29;20239;-70
2023/11/22 17:10:41;;;;;;;3.65;3.35;;;3.00;99.90;;;;;;4895698;29;20254;-71
2023/11/22 17:13:10;;;;;;;3.38;3.10;;;3.00;99.90;;;;;;4897341;29;20211;-72
2023/11/22 17:15:39;;;;;;;9.07;3.30;;;3.00;99.90;;;;;;4891518;29;20302;-71
2023/11/22 17:18:06;;;;;;;2.97;2.88;;;3.00;99.90;;;;;;4894878;29;20279;-70
2023/11/22 17:20:33;;;;;;;3.20;2.95;;;3.00;99.90;;;;;;4895100;29;20306;-71
2023/11/22 17:23:00;;;;;;;3.55;3.35;;;3.00;99.90;;;;;;4891608;29;20552;-71
2023/11/22 17:25:27;;;;;;;3.55;3.35;;;3.00;99.90;;;;;;4892918;29;20212;-70
2023/11/22 17:27:55;;;;;;;4.75;2.75;;;3.00;99.90;;;;;;4894981;29;20231;-72
2023/11/22 17:30:25;;;;;;;3.17;2.85;;;2.90;99.90;;;;;;4897462;29;20326;-72
2023/11/22 17:32:52;;;;;;;3.08;2.88;;;3.00;99.90;;;;;;4897668;29;20275;-72
2023/11/22 17:35:20;;;;;;;3.63;3.30;;;3.00;99.90;;;;;;4893350;29;20705;-72
2023/11/22 17:37:49;;;;;;;3.90;2.85;;;3.00;99.90;;;;;;4895042;29;20536;-71
2023/11/22 17:40:16;;;;;;;4.57;3.20;;;3.00;99.90;;;;;;4896057;29;20330;-71
2023/11/22 17:42:43;;;;;;;5.05;3.40;;;3.00;99.90;;;;;;4897739;29;20279;-72
2023/11/22 17:45:11;;;;;;;5.32;3.90;;;2.90;99.90;;;;;;4897428;29;20298;-72
2023/11/22 17:47:38;;;;;;;5.13;3.67;;;3.00;99.90;;;;;;4896860;29;20238;-72
2023/11/22 17:50:05;;;;;;;4.93;3.47;;;3.00;99.90;;;;;;4887732;29;20228;-70
2023/11/22 17:52:32;;;;;;;6.03;3.45;;;3.00;99.90;;;;;;4897486;29;20312;-71
2023/11/22 17:54:59;;;;;;;4.22;3.95;;;3.00;99.90;;;;;;4896113;29;20238;-70
2023/11/22 17:57:27;;;;;;;5.70;3.50;;;3.00;99.90;;;;;;4886262;29;20260;-70
2023/11/22 17:59:54;;;;;;;4.10;3.50;;;3.00;99.90;;;;;;4896057;29;20256;-70